Time;durP1;ratioP1;P1;durP2;ratioP2;P2;SDS_P1;SDS_P2;PMS_P1;PMS_P2;Temp;Humidity;BMP_temperature;BMP_pressure;BME280_temperature;BME280_humidity;BME280_pressure;Samples;Min_cycle;Max_cycle;Signal;HPM_P1;HPM_P2
2022/10/01 00:01:46;;;;;;;1.52;1.42;;;;;;;-143.85;100.00;70650.75;5032627;28;20095;-90
2022/10/01 00:04:12;;;;;;;4.20;1.65;;;;;;;-143.85;100.00;70650.75;5030528;28;20025;-92
2022/10/01 00:06:37;;;;;;;1.48;1.25;;;;;;;-143.85;100.00;70650.75;5027312;28;20029;-93
2022/10/01 00:09:03;;;;;;;1.55;1.45;;;;;;;-143.85;100.00;70650.75;5038480;28;20105;-95
2022/10/01 00:11:29;;;;;;;2.55;2.10;;;;;;;-143.85;100.00;70650.75;5045963;28;20060;-89
2022/10/01 00:13:56;;;;;;;9.50;1.58;;;;;;;-143.85;100.00;70650.75;5025390;28;20488;-92
2022/10/01 00:16:27;;;;;;;1.90;1.52;;;;;;;-143.85;100.00;70650.75;5050617;28;20028;-91
2022/10/01 00:18:53;;;;;;;4.03;1.75;;;;;;;-143.85;100.00;70650.75;5048114;28;20033;-92
2022/10/01 00:21:21;;;;;;;4.03;1.70;;;;;;;-143.85;100.00;70650.75;5043988;28;20033;-92
2022/10/01 00:23:52;;;;;;;3.70;1.92;;;;;;;-143.85;100.00;70650.75;5032828;28;20053;-94
2022/10/01 00:26:20;;;;;;;4.13;1.50;;;;;;;-143.85;100.00;70650.75;5040633;28;20034;-93
2022/10/01 00:28:48;;;;;;;2.70;1.60;;;;;;;-143.85;100.00;70650.75;5028744;28;20067;-94
2022/10/01 00:31:14;;;;;;;2.50;1.55;;;;;;;-143.85;100.00;70650.75;5029287;28;20033;-94
2022/10/01 00:33:41;;;;;;;2.10;1.90;;;;;;;-143.85;100.00;70650.75;5035616;28;20021;-93
2022/10/01 00:36:08;;;;;;;2.33;1.55;;;;;;;-143.85;100.00;70650.75;5031930;28;20064;-91
2022/10/01 00:38:35;;;;;;;3.30;1.50;;;;;;;-143.85;100.00;70650.75;5035594;28;20048;-92
2022/10/01 00:41:01;;;;;;;2.10;1.85;;;;;;;-143.85;100.00;70650.75;5035566;28;20091;-94
2022/10/01 00:43:30;;;;;;;3.33;2.05;;;;;;;-143.85;100.00;70650.75;5032409;28;20033;-91
2022/10/01 00:46:03;;;;;;;9.48;2.20;;;;;;;-143.85;100.00;70650.75;5046431;28;20029;-90
2022/10/01 00:48:33;;;;;;;3.28;1.67;;;;;;;-143.85;100.00;70650.75;5032494;28;20143;-91
2022/10/01 00:50:59;;;;;;;6.40;1.75;;;;;;;-143.85;100.00;70650.75;5023150;28;20088;-92
2022/10/01 00:53:26;;;;;;;3.08;1.55;;;;;;;-143.85;100.00;70650.75;5035608;28;20056;-91
2022/10/01 00:55:55;;;;;;;7.38;1.55;;;;;;;-143.85;100.00;70650.75;5051719;28;20053;-93
2022/10/01 00:58:23;;;;;;;2.13;1.77;;;;;;;-143.85;100.00;70650.75;5032232;28;20104;-93
2022/10/01 01:00:52;;;;;;;1.50;1.30;;;;;;;-143.85;100.00;70650.75;5036758;28;20056;-91
2022/10/01 01:03:17;;;;;;;2.30;1.70;;;;;;;-143.85;100.00;70650.75;5046937;28;20030;-91
2022/10/01 01:05:45;;;;;;;1.55;1.13;;;;;;;-143.85;100.00;70650.75;5035214;28;20128;-91
2022/10/01 01:08:10;;;;;;;2.40;1.20;;;;;;;-143.85;100.00;70650.75;5035983;28;20052;-94
2022/10/01 01:10:44;;;;;;;5.97;1.23;;;;;;;-143.85;100.00;70650.75;5034957;28;20021;-93
2022/10/01 01:13:30;;;;;;;1.27;1.17;;;;;;;-143.85;100.00;70650.75;5034903;28;20033;-91
2022/10/01 01:15:59;;;;;;;1.15;1.05;;;;;;;-143.85;100.00;70650.75;5036731;28;20026;-91
2022/10/01 01:18:33;;;;;;;3.08;2.20;;;;;;;-143.85;100.00;70650.75;5031447;28;20036;-92
2022/10/01 01:20:58;;;;;;;1.65;1.42;;;;;;;-143.85;100.00;70650.75;5031898;28;20029;-92
2022/10/01 01:23:46;;;;;;;1.17;1.08;;;;;;;-143.85;100.00;70650.75;5022657;28;20099;-91
2022/10/01 01:26:17;;;;;;;5.22;2.00;;;;;;;-143.85;100.00;70650.75;5032740;28;20555;-93
2022/10/01 01:28:49;;;;;;;1.70;1.35;;;;;;;-143.85;100.00;70650.75;5034770;28;20033;-91
2022/10/01 01:31:24;;;;;;;1.63;1.50;;;;;;;-143.85;100.00;70650.75;5028972;28;20032;-92
2022/10/01 01:33:52;;;;;;;1.77;1.60;;;;;;;-143.85;100.00;70650.75;5022129;28;20067;-95
2022/10/01 01:36:35;;;;;;;2.28;1.63;;;;;;;-143.85;100.00;70650.75;5028526;28;20444;-93
2022/10/01 01:39:04;;;;;;;3.40;1.77;;;;;;;-143.85;100.00;70650.75;5033678;28;20545;-92
2022/10/01 01:41:35;;;;;;;1.73;1.42;;;;;;;-143.85;100.00;70650.75;5029637;28;20029;-93
2022/10/01 01:44:07;;;;;;;2.30;1.50;;;;;;;-143.85;100.00;70650.75;5029453;28;20049;-91
2022/10/01 01:46:35;;;;;;;1.83;1.45;;;;;;;-143.85;100.00;70650.75;5019139;28;20026;-92
2022/10/01 01:49:02;;;;;;;;;;;;;;;-143.85;100.00;70650.75;5039079;28;20041;-93
2022/10/01 01:51:40;;;;;;;1.42;1.33;;;;;;;-143.85;100.00;70650.75;5024729;28;19971;-92
2022/10/01 01:54:07;;;;;;;1.70;1.52;;;;;;;-143.85;100.00;70650.75;5034716;28;20032;-92
2022/10/01 01:56:33;;;;;;;2.10;1.75;;;;;;;-143.85;100.00;70650.75;5033543;28;20064;-92
2022/10/01 01:58:59;;;;;;;1.55;1.45;;;;;;;-143.85;100.00;70650.75;5030890;28;20631;-91
2022/10/01 02:01:41;;;;;;;2.47;1.73;;;;;;;-143.85;100.00;70650.75;5033644;28;20115;-91
2022/10/01 02:04:22;;;;;;;2.20;2.00;;;;;;;-143.85;100.00;70650.75;5028605;28;20041;-90
2022/10/01 02:07:20;;;;;;;2.20;2.00;;;;;;;-143.85;100.00;70650.75;5039211;28;20033;-92
2022/10/01 02:10:09;;;;;;;1.83;1.40;;;;;;;-143.85;100.00;70650.75;5028494;28;20080;-92
2022/10/01 02:13:07;;;;;;;2.30;1.60;;;;;;;-143.85;100.00;70650.75;5047653;28;20092;-92
2022/10/01 02:15:47;;;;;;;3.65;1.75;;;;;;;-143.85;100.00;70650.75;5028241;28;20117;-92
2022/10/01 02:18:25;;;;;;;3.03;2.17;;;;;;;-143.85;100.00;70650.75;5025373;28;20021;-91
2022/10/01 02:21:18;;;;;;;9.55;2.33;;;;;;;-143.85;100.00;70650.75;5021409;28;20037;-92
2022/10/01 02:23:53;;;;;;;2.08;1.60;;;;;;;-143.85;100.00;70650.75;5030363;28;20076;-91
2022/10/01 02:26:22;;;;;;;2.28;1.45;;;;;;;-143.85;100.00;70650.75;5014428;28;20057;-92
2022/10/01 02:28:49;;;;;;;2.38;1.52;;;;;;;-143.85;100.00;70650.75;5046977;28;20026;-91
2022/10/01 02:31:18;;;;;;;1.63;1.30;;;;;;;-143.85;100.00;70650.75;5033435;28;20543;-93
2022/10/01 02:33:45;;;;;;;1.83;1.65;;;;;;;-143.85;100.00;70650.75;5033441;28;20121;-93
2022/10/01 02:36:12;;;;;;;3.83;1.83;;;;;;;-143.85;100.00;70650.75;5033432;28;20036;-92
2022/10/01 02:38:40;;;;;;;2.60;1.95;;;;;;;-143.85;100.00;70650.75;5033368;28;20121;-92
2022/10/01 02:41:10;;;;;;;5.55;1.50;;;;;;;-143.85;100.00;70650.75;5032676;28;20029;-92
2022/10/01 02:43:52;;;;;;;3.10;1.40;;;;;;;-143.85;100.00;70650.75;5033166;28;20033;-92
2022/10/01 02:46:49;;;;;;;1.65;1.48;;;;;;;-143.85;100.00;70650.75;5033150;28;20493;-93
2022/10/01 02:49:14;;;;;;;2.78;1.65;;;;;;;-143.85;100.00;70650.75;5048334;28;20053;-92
2022/10/01 02:51:58;;;;;;;1.50;1.27;;;;;;;-143.85;100.00;70650.75;5023953;28;20061;-93
2022/10/01 02:54:30;;;;;;;3.30;2.10;;;;;;;-143.85;100.00;70650.75;5030580;28;20026;-92
2022/10/01 02:59:41;;;;;;;2.58;1.92;;;;;;;-143.85;100.00;70650.75;5020722;28;20110;-91
2022/10/01 03:02:06;;;;;;;2.00;1.27;;;;;;;-143.85;100.00;70650.75;5033960;28;20026;-91
2022/10/01 03:04:32;;;;;;;2.10;1.80;;;;;;;-143.85;100.00;70650.75;5033823;28;20481;-92
2022/10/01 03:07:02;;;;;;;3.45;1.60;;;;;;;-143.85;100.00;70650.75;5032648;28;20120;-91
2022/10/01 03:09:30;;;;;;;2.85;2.10;;;;;;;-143.85;100.00;70650.75;5032773;28;20061;-91
2022/10/01 03:11:57;;;;;;;2.38;1.70;;;;;;;-143.85;100.00;70650.75;5032730;28;20040;-94
2022/10/01 03:14:23;;;;;;;1.92;1.55;;;;;;;-143.85;100.00;70650.75;5046548;28;20499;-92
2022/10/01 03:16:53;;;;;;;3.25;2.45;;;;;;;-143.85;100.00;70650.75;5024660;28;20116;-92
2022/10/01 03:19:19;;;;;;;3.60;2.38;;;;;;;-143.85;100.00;70650.75;5037357;28;20064;-92
2022/10/01 03:21:45;;;;;;;2.47;2.20;;;;;;;-143.85;100.00;70650.75;5023973;28;20030;-93
2022/10/01 03:24:10;;;;;;;2.58;2.03;;;;;;;-143.85;100.00;70650.75;5020436;28;20025;-92
2022/10/01 03:26:36;;;;;;;2.67;2.08;;;;;;;-143.85;100.00;70650.75;5018669;28;20083;-91
2022/10/01 03:29:02;;;;;;;3.28;2.13;;;;;;;-143.85;100.00;70650.75;5020343;28;20033;-91
2022/10/01 03:31:28;;;;;;;3.10;1.75;;;;;;;-143.85;100.00;70650.75;5019509;28;20128;-92
2022/10/01 03:33:53;;;;;;;4.20;2.25;;;;;;;-143.85;100.00;70650.75;5026625;28;20522;-92
2022/10/01 03:36:19;;;;;;;1.35;1.25;;;;;;;-143.85;100.00;70650.75;5032346;28;20521;-90
2022/10/01 03:38:44;;;;;;;4.55;1.80;;;;;;;-143.85;100.00;70650.75;5033441;28;20026;-92
2022/10/01 03:41:10;;;;;;;1.63;1.48;;;;;;;-143.85;100.00;70650.75;5025439;28;20111;-90
2022/10/01 03:43:35;;;;;;;6.45;2.38;;;;;;;-143.85;100.00;70650.75;5043271;28;20021;-92
2022/10/01 03:46:01;;;;;;;2.58;1.67;;;;;;;-143.85;100.00;70650.75;5033231;28;20064;-90
2022/10/01 03:48:28;;;;;;;2.42;1.50;;;;;;;-143.85;100.00;70650.75;5033472;28;20052;-90
2022/10/01 03:50:58;;;;;;;3.60;2.17;;;;;;;-143.85;100.00;70650.75;5037022;28;20029;-91
2022/10/01 03:53:26;;;;;;;4.30;2.25;;;;;;;-143.85;100.00;70650.75;5024867;28;20052;-90
2022/10/01 03:55:52;;;;;;;3.67;2.17;;;;;;;-143.85;100.00;70650.75;5050702;28;20059;-91
2022/10/01 03:58:17;;;;;;;5.82;2.05;;;;;;;-143.85;100.00;70650.75;5052715;28;20120;-91
2022/10/01 04:00:45;;;;;;;4.35;1.83;;;;;;;-143.85;100.00;70650.75;5048857;28;20091;-91
2022/10/01 04:03:12;;;;;;;12.45;2.05;;;;;;;-143.85;100.00;70650.75;5032604;28;20087;-90
2022/10/01 04:05:37;;;;;;;3.22;1.42;;;;;;;-143.85;100.00;70650.75;5032046;28;20554;-91
2022/10/01 04:08:02;;;;;;;1.70;1.40;;;;;;;-143.85;100.00;70650.75;5032356;28;20021;-91
2022/10/01 04:10:28;;;;;;;4.68;2.72;;;;;;;-143.85;100.00;70650.75;5020516;28;20070;-92
2022/10/01 04:12:54;;;;;;;3.40;2.13;;;;;;;-143.85;100.00;70650.75;5021753;28;20026;-95
2022/10/01 04:15:21;;;;;;;1.73;1.60;;;;;;;-143.85;100.00;70650.75;5027315;28;20398;-95
2022/10/01 04:17:47;;;;;;;3.70;1.70;;;;;;;-143.85;100.00;70650.75;5025284;28;20034;-86
2022/10/01 04:20:12;;;;;;;3.67;2.13;;;;;;;-143.85;100.00;70650.75;5018358;28;20120;-91
2022/10/01 04:22:39;;;;;;;2.25;1.58;;;;;;;-143.85;100.00;70650.75;5024040;28;20046;-94
2022/10/01 04:25:09;;;;;;;3.78;1.90;;;;;;;-143.85;100.00;70650.75;5016139;28;20026;-94
2022/10/01 04:27:38;;;;;;;2.38;1.70;;;;;;;-143.85;100.00;70650.75;5038507;28;20032;-95
2022/10/01 04:30:06;;;;;;;5.38;1.40;;;;;;;-143.85;100.00;70650.75;5035408;28;20080;-91
2022/10/01 04:32:36;;;;;;;1.35;1.25;;;;;;;-143.85;100.00;70650.75;5027765;28;20135;-87
2022/10/01 04:35:03;;;;;;;2.53;2.00;;;;;;;-143.85;100.00;70650.75;5025533;28;20067;-86
2022/10/01 04:37:29;;;;;;;3.10;2.53;;;;;;;-143.85;100.00;70650.75;5033669;28;20041;-86
2022/10/01 04:39:55;;;;;;;3.22;2.00;;;;;;;-143.85;100.00;70650.75;5026441;28;20025;-87
2022/10/01 04:42:21;;;;;;;2.00;1.83;;;;;;;-143.85;100.00;70650.75;5022174;28;20029;-86
2022/10/01 04:44:47;;;;;;;8.40;3.42;;;;;;;-143.85;100.00;70650.75;5021939;28;20059;-87
2022/10/01 04:47:12;;;;;;;5.15;2.15;;;;;;;-143.85;100.00;70650.75;5034380;28;20022;-87
2022/10/01 04:49:38;;;;;;;2.78;2.05;;;;;;;-143.85;100.00;70650.75;5031085;28;20033;-85
2022/10/01 04:52:04;;;;;;;4.28;1.67;;;;;;;-143.85;100.00;70650.75;5019340;28;20022;-85
2022/10/01 04:54:30;;;;;;;2.58;1.77;;;;;;;-143.85;100.00;70650.75;5029381;28;20033;-84
2022/10/01 04:56:57;;;;;;;3.80;2.70;;;;;;;-143.85;100.00;70650.75;5036964;28;20523;-87
2022/10/01 04:59:22;;;;;;;2.25;1.52;;;;;;;-143.85;100.00;70650.75;5029440;28;20100;-86
2022/10/01 05:01:48;;;;;;;1.70;1.58;;;;;;;-143.85;100.00;70650.75;5041387;28;20124;-87
2022/10/01 05:04:13;;;;;;;2.67;2.33;;;;;;;-143.85;100.00;70650.75;5035155;28;20033;-86
2022/10/01 05:06:40;;;;;;;2.33;1.70;;;;;;;-143.85;100.00;70650.75;5032255;28;20029;-87
2022/10/01 05:09:05;;;;;;;1.88;1.67;;;;;;;-143.85;100.00;70650.75;5054587;28;20087;-87
2022/10/01 05:11:31;;;;;;;3.28;1.45;;;;;;;-143.85;100.00;70650.75;5044815;28;20481;-87
2022/10/01 05:13:56;;;;;;;1.70;1.60;;;;;;;-143.85;100.00;70650.75;5034855;28;20025;-88
2022/10/01 05:16:22;;;;;;;3.75;1.67;;;;;;;-143.85;100.00;70650.75;5048726;28;20021;-87
2022/10/01 05:18:47;;;;;;;2.10;1.17;;;;;;;-143.85;100.00;70650.75;5040521;28;20034;-88
2022/10/01 05:21:14;;;;;;;1.45;1.35;;;;;;;-143.85;100.00;70650.75;5041537;28;20488;-88
2022/10/01 05:23:40;;;;;;;2.05;1.10;;;;;;;-143.85;100.00;70650.75;5042476;28;20496;-87
2022/10/01 05:26:06;;;;;;;1.88;1.55;;;;;;;-143.85;100.00;70650.75;5045791;28;20037;-87
2022/10/01 05:28:33;;;;;;;3.75;1.50;;;;;;;-143.85;100.00;70650.75;5037938;28;20029;-88
2022/10/01 05:31:02;;;;;;;1.73;1.63;;;;;;;-143.85;100.00;70650.75;5038468;28;20124;-87
2022/10/01 05:33:29;;;;;;;11.60;1.90;;;;;;;-143.85;100.00;70650.75;5020232;28;20164;-86
2022/10/01 05:35:58;;;;;;;2.65;1.55;;;;;;;-143.85;100.00;70650.75;5034647;28;20497;-87
2022/10/01 05:38:23;;;;;;;1.40;1.30;;;;;;;-143.85;100.00;70650.75;5035343;28;20029;-87
2022/10/01 05:40:49;;;;;;;2.58;1.30;;;;;;;-143.85;100.00;70650.75;5034738;28;20091;-86
2022/10/01 05:43:14;;;;;;;2.95;1.42;;;;;;;-143.85;100.00;70650.75;5034086;28;20057;-87
2022/10/01 05:45:40;;;;;;;4.15;1.40;;;;;;;-143.85;100.00;70650.75;5028015;28;20022;-87
2022/10/01 05:48:07;;;;;;;1.88;1.48;;;;;;;-143.85;100.00;70650.75;5035333;28;20053;-86
2022/10/01 05:50:39;;;;;;;1.70;1.27;;;;;;;-143.85;100.00;70650.75;5032643;28;20033;-86
2022/10/01 05:53:06;;;;;;;1.20;1.08;;;;;;;-143.85;100.00;70650.75;5029315;28;20051;-87
2022/10/01 05:55:33;;;;;;;2.17;1.38;;;;;;;-143.85;100.00;70650.75;5047365;28;20386;-87
2022/10/01 05:58:09;;;;;;;5.80;1.90;;;;;;;-143.85;100.00;70650.75;5054849;28;20396;-86
2022/10/01 06:00:36;;;;;;;1.27;1.17;;;;;;;-143.85;100.00;70650.75;5047931;28;20037;-86
2022/10/01 06:03:03;;;;;;;6.38;1.52;;;;;;;-143.85;100.00;70650.75;5023183;28;20030;-86
2022/10/01 06:05:30;;;;;;;1.60;1.30;;;;;;;-143.85;100.00;70650.75;5039110;28;20042;-87
2022/10/01 06:07:56;;;;;;;1.52;1.42;;;;;;;-143.85;100.00;70650.75;5022346;28;20446;-86
2022/10/01 06:10:22;;;;;;;1.75;1.33;;;;;;;-143.85;100.00;70650.75;5027092;28;20068;-87
2022/10/01 06:12:48;;;;;;;1.25;1.15;;;;;;;-143.85;100.00;70650.75;5029875;28;20029;-86
2022/10/01 06:15:14;;;;;;;3.90;1.23;;;;;;;-143.85;100.00;70650.75;5053868;28;20025;-86
2022/10/01 06:17:42;;;;;;;1.85;0.98;;;;;;;-143.85;100.00;70650.75;5041692;28;20033;-86
2022/10/01 06:20:10;;;;;;;;;;;;;;;-143.85;100.00;70650.75;5034063;28;20044;-86
2022/10/01 06:22:36;;;;;;;1.08;0.98;;;;;;;-143.85;100.00;70650.75;5034339;28;19913;-87
2022/10/01 06:25:01;;;;;;;2.05;1.70;;;;;;;-143.85;100.00;70650.75;5046917;28;20481;-87
2022/10/01 06:27:27;;;;;;;1.85;1.02;;;;;;;-143.85;100.00;70650.75;5034370;28;20033;-86
2022/10/01 06:29:52;;;;;;;12.00;2.83;;;;;;;-143.85;100.00;70650.75;5026895;28;20060;-86
2022/10/01 06:32:18;;;;;;;8.68;1.33;;;;;;;-143.85;100.00;70650.75;5040762;28;20116;-88
2022/10/01 06:34:44;;;;;;;1.08;1.05;;;;;;;-143.85;100.00;70650.75;5025512;28;20105;-88
2022/10/01 06:37:09;;;;;;;1.35;1.10;;;;;;;-143.85;100.00;70650.75;5033533;28;20060;-87
2022/10/01 06:39:35;;;;;;;1.60;1.05;;;;;;;-143.85;100.00;70650.75;5041894;28;20028;-87
2022/10/01 06:42:00;;;;;;;5.40;0.93;;;;;;;-143.85;100.00;70650.75;5033303;28;20041;-87
2022/10/01 06:44:25;;;;;;;1.65;1.45;;;;;;;-143.85;100.00;70650.75;5040359;28;20030;-88
2022/10/01 06:46:51;;;;;;;1.38;1.27;;;;;;;-143.85;100.00;70650.75;5024761;28;20045;-87
2022/10/01 06:49:19;;;;;;;2.45;1.17;;;;;;;-143.85;100.00;70650.75;5034371;28;20033;-88
2022/10/01 06:54:28;;;;;;;1.23;1.13;;;;;;;-143.85;100.00;70650.75;5033625;28;20340;-87
2022/10/01 06:56:54;;;;;;;1.45;1.00;;;;;;;-143.85;100.00;70650.75;5032658;28;20057;-86
2022/10/01 06:59:19;;;;;;;1.42;1.33;;;;;;;-143.85;100.00;70650.75;5032655;28;20464;-88
2022/10/01 07:01:48;;;;;;;5.78;1.33;;;;;;;-143.85;100.00;70650.75;5039472;28;20534;-87
2022/10/01 07:04:13;;;;;;;1.63;0.98;;;;;;;-143.85;100.00;70650.75;5053728;28;20021;-87
2022/10/01 07:06:39;;;;;;;1.55;1.30;;;;;;;-143.85;100.00;70650.75;5049635;28;20044;-88
2022/10/01 07:09:04;;;;;;;4.13;1.70;;;;;;;-143.85;100.00;70650.75;5028593;28;20025;-88
2022/10/01 07:11:30;;;;;;;1.45;1.10;;;;;;;-143.85;100.00;70650.75;5032910;28;20052;-88
2022/10/01 07:13:56;;;;;;;2.08;1.63;;;;;;;-143.85;100.00;70650.75;5032625;28;20561;-88
2022/10/01 07:16:22;;;;;;;3.13;1.20;;;;;;;-143.85;100.00;70650.75;5024935;28;20501;-88
2022/10/01 07:18:47;;;;;;;6.13;1.95;;;;;;;-143.85;100.00;70650.75;5032388;28;20029;-88
2022/10/01 07:21:12;;;;;;;1.20;1.10;;;;;;;-143.85;100.00;70650.75;5048005;28;20110;-87
2022/10/01 07:23:38;;;;;;;2.78;1.73;;;;;;;-143.85;100.00;70650.75;5050670;28;20025;-88
2022/10/01 07:26:04;;;;;;;1.33;1.17;;;;;;;-143.85;100.00;70650.75;5038169;28;20036;-88
2022/10/01 07:28:30;;;;;;;2.28;1.00;;;;;;;-143.85;100.00;70650.75;5032226;28;20033;-88
2022/10/01 07:31:13;;;;;;;4.80;1.38;;;;;;;-143.85;100.00;70650.75;5022999;28;20394;-88
2022/10/01 07:33:40;;;;;;;1.92;1.30;;;;;;;-143.85;100.00;70650.75;5032925;28;20025;-88
2022/10/01 07:36:07;;;;;;;3.42;1.33;;;;;;;-143.85;100.00;70650.75;5043946;28;20029;-88
2022/10/01 07:38:33;;;;;;;4.32;3.92;;;;;;;-143.85;100.00;70650.75;5033767;28;20032;-88
2022/10/01 07:41:01;;;;;;;6.00;2.25;;;;;;;-143.85;100.00;70650.75;5032305;28;20033;-89
2022/10/01 07:43:27;;;;;;;;;;;;;;;-143.85;100.00;70650.75;5043309;28;20513;-87
2022/10/01 07:45:55;;;;;;;1.67;1.45;;;;;;;-143.85;100.00;70650.75;5046481;28;19919;-88
2022/10/01 07:48:21;;;;;;;1.58;1.30;;;;;;;-143.85;100.00;70650.75;5019240;28;20083;-87
2022/10/01 07:50:46;;;;;;;1.60;1.48;;;;;;;-143.85;100.00;70650.75;5015247;28;20030;-87
2022/10/01 07:53:12;;;;;;;2.03;1.25;;;;;;;-143.85;100.00;70650.75;5019199;28;20048;-87
2022/10/01 07:55:38;;;;;;;2.22;1.23;;;;;;;-143.85;100.00;70650.75;5035119;28;20384;-88
2022/10/01 07:58:04;;;;;;;1.95;1.55;;;;;;;-143.85;100.00;70650.75;5017354;28;20029;-89
2022/10/01 08:00:32;;;;;;;3.22;1.00;;;;;;;-143.85;100.00;70650.75;5020787;28;20463;-87
2022/10/01 08:02:57;;;;;;;0.93;0.93;;;;;;;-143.85;100.00;70650.75;5023801;28;20040;-87
2022/10/01 08:05:32;;;;;;;1.92;1.40;;;;;;;-143.85;100.00;70650.75;5031856;28;20029;-85
2022/10/01 08:08:03;;;;;;;1.67;1.35;;;;;;;-143.85;100.00;70650.75;5024059;28;20029;-87
2022/10/01 08:10:28;;;;;;;2.45;0.90;;;;;;;-143.85;100.00;70650.75;5049271;28;20113;-87
2022/10/01 08:13:07;;;;;;;1.60;1.10;;;;;;;-143.85;100.00;70650.75;5044021;28;20064;-86
2022/10/01 08:15:33;;;;;;;4.53;1.48;;;;;;;-143.85;100.00;70650.75;5028970;28;20068;-86
2022/10/01 08:18:03;;;;;;;3.35;2.03;;;;;;;-143.85;100.00;70650.75;5026070;28;20036;-86
2022/10/01 08:20:29;;;;;;;1.48;1.38;;;;;;;-143.85;100.00;70650.75;5031716;28;20036;-86
2022/10/01 08:23:13;;;;;;;1.67;1.30;;;;;;;-143.85;100.00;70650.75;5032557;28;20100;-85
2022/10/01 08:25:39;;;;;;;3.97;1.50;;;;;;;-143.85;100.00;70650.75;5031627;28;20036;-86
2022/10/01 08:28:05;;;;;;;2.15;1.13;;;;;;;-143.85;100.00;70650.75;5021801;28;20543;-86
2022/10/01 08:30:31;;;;;;;1.52;1.23;;;;;;;-143.85;100.00;70650.75;5031771;28;20474;-85
2022/10/01 08:32:59;;;;;;;2.72;1.95;;;;;;;-143.85;100.00;70650.75;5031567;28;20032;-86
2022/10/01 08:35:26;;;;;;;16.23;3.88;;;;;;;-143.85;100.00;70650.75;5031811;28;20033;-87
2022/10/01 08:37:51;;;;;;;3.33;1.73;;;;;;;-143.85;100.00;70650.75;5018377;28;20026;-87
2022/10/01 08:40:20;;;;;;;3.67;1.85;;;;;;;-143.85;100.00;70650.75;5033733;28;20087;-87
2022/10/01 08:43:05;;;;;;;1.95;1.30;;;;;;;-143.85;100.00;70650.75;5028345;28;20053;-86
2022/10/01 08:45:50;;;;;;;12.40;2.22;;;;;;;-143.85;100.00;70650.75;5017985;28;20030;-86
2022/10/01 08:48:21;;;;;;;1.63;1.35;;;;;;;-143.85;100.00;70650.75;5026084;28;20036;-87
2022/10/01 08:51:06;;;;;;;4.00;1.70;;;;;;;-143.85;100.00;70650.75;5034401;28;20124;-86
2022/10/01 08:53:41;;;;;;;4.07;2.08;;;;;;;-143.85;100.00;70650.75;5033870;28;20031;-86
2022/10/01 08:56:17;;;;;;;3.60;1.77;;;;;;;-143.85;100.00;70650.75;5034604;28;20048;-86
2022/10/01 08:58:48;;;;;;;3.20;1.97;;;;;;;-143.85;100.00;70650.75;5029465;28;20037;-87
2022/10/01 09:01:14;;;;;;;1.75;1.65;;;;;;;-143.85;100.00;70650.75;5021649;28;20259;-86
2022/10/01 09:03:40;;;;;;;4.35;1.42;;;;;;;-143.85;100.00;70650.75;5024445;28;20033;-87
2022/10/01 09:06:11;;;;;;;5.40;2.38;;;;;;;-143.85;100.00;70650.75;5032027;28;20025;-86
2022/10/01 09:08:55;;;;;;;1.40;1.25;;;;;;;-143.85;100.00;70650.75;5028871;28;20560;-86
2022/10/01 09:11:28;;;;;;;3.10;1.85;;;;;;;-143.85;100.00;70650.75;5054215;28;20469;-86
2022/10/01 09:14:24;;;;;;;1.92;1.38;;;;;;;-143.85;100.00;70650.75;5035646;28;20053;-87
2022/10/01 09:16:52;;;;;;;1.50;1.30;;;;;;;-143.85;100.00;70650.75;5032133;28;20025;-88
2022/10/01 09:19:45;;;;;;;1.98;1.45;;;;;;;-143.85;100.00;70650.75;5049694;28;20110;-85
2022/10/01 09:22:41;;;;;;;1.73;1.58;;;;;;;-143.85;100.00;70650.75;5047641;28;20013;-85
2022/10/01 09:25:13;;;;;;;4.22;1.20;;;;;;;-143.85;100.00;70650.75;5033092;28;20551;-86
2022/10/01 09:27:39;;;;;;;1.48;1.20;;;;;;;-143.85;100.00;70650.75;5022227;28;20030;-87
2022/10/01 09:30:29;;;;;;;1.38;1.17;;;;;;;-143.85;100.00;70650.75;5037937;28;20534;-87
2022/10/01 09:33:01;;;;;;;2.28;1.35;;;;;;;-143.85;100.00;70650.75;5021648;28;20037;-88
2022/10/01 09:35:48;;;;;;;2.28;1.10;;;;;;;-143.85;100.00;70650.75;5021413;28;20040;-89
2022/10/01 09:38:37;;;;;;;2.22;1.30;;;;;;;-143.85;100.00;70650.75;5033380;28;20124;-87
2022/10/01 09:41:03;;;;;;;1.70;1.23;;;;;;;-143.85;100.00;70650.75;5027472;28;20075;-86
2022/10/01 09:43:31;;;;;;;1.77;1.67;;;;;;;-143.85;100.00;70650.75;5034072;28;20030;-86
2022/10/01 09:45:57;;;;;;;2.30;1.40;;;;;;;-143.85;100.00;70650.75;5033065;28;20124;-85
2022/10/01 09:48:58;;;;;;;1.60;1.48;;;;;;;-143.85;100.00;70650.75;5029752;28;20393;-86
2022/10/01 09:51:41;;;;;;;2.28;1.35;;;;;;;-143.85;100.00;70650.75;5040835;28;20100;-86
2022/10/01 09:54:16;;;;;;;5.65;1.77;;;;;;;-143.85;100.00;70650.75;5031732;28;20030;-86
2022/10/01 09:56:57;;;;;;;2.50;1.80;;;;;;;-143.85;100.00;70650.75;5033701;28;20133;-86
2022/10/01 09:59:52;;;;;;;2.47;2.05;;;;;;;-143.85;100.00;70650.75;5033102;28;20467;-86
2022/10/01 10:02:30;;;;;;;1.70;1.33;;;;;;;-143.85;100.00;70650.75;5027241;28;20042;-87
2022/10/01 10:05:03;;;;;;;2.30;1.15;;;;;;;-143.85;100.00;70650.75;5030862;28;20029;-87
2022/10/01 10:07:31;;;;;;;1.60;1.27;;;;;;;-143.85;100.00;70650.75;5020792;28;20037;-88
2022/10/01 10:10:06;;;;;;;1.77;1.30;;;;;;;-143.85;100.00;70650.75;5033160;28;20084;-86
2022/10/01 10:12:33;;;;;;;2.20;1.85;;;;;;;-143.85;100.00;70650.75;5048832;28;20033;-86
2022/10/01 10:15:06;;;;;;;1.40;1.30;;;;;;;-143.85;100.00;70650.75;5032570;28;20037;-85
2022/10/01 10:17:34;;;;;;;3.40;1.58;;;;;;;-143.85;100.00;70650.75;5027500;28;20034;-86
2022/10/01 10:19:59;;;;;;;1.67;1.40;;;;;;;-143.85;100.00;70650.75;5033419;28;20034;-86
2022/10/01 10:22:27;;;;;;;2.22;1.42;;;;;;;-143.85;100.00;70650.75;5032762;28;20036;-86
2022/10/01 10:24:57;;;;;;;1.73;1.63;;;;;;;-143.85;100.00;70650.75;5034511;28;20064;-84
2022/10/01 10:27:28;;;;;;;1.77;1.63;;;;;;;-143.85;100.00;70650.75;5032675;28;20044;-85
2022/10/01 10:30:07;;;;;;;23.20;4.28;;;;;;;-143.85;100.00;70650.75;5021601;28;20037;-87
2022/10/01 10:32:33;;;;;;;3.75;1.75;;;;;;;-143.85;100.00;70650.75;5031287;28;20040;-86
2022/10/01 10:35:04;;;;;;;7.78;1.90;;;;;;;-143.85;100.00;70650.75;5032916;28;20160;-84
2022/10/01 10:37:33;;;;;;;5.50;3.03;;;;;;;-143.85;100.00;70650.75;5032667;28;20036;-85
2022/10/01 10:39:59;;;;;;;3.30;2.22;;;;;;;-143.85;100.00;70650.75;5032797;28;20037;-85
2022/10/01 10:42:25;;;;;;;1.98;1.73;;;;;;;-143.85;100.00;70650.75;5028056;28;20032;-85
2022/10/01 10:44:53;;;;;;;19.42;2.65;;;;;;;-143.85;100.00;70650.75;5033886;28;20025;-85
2022/10/01 10:47:21;;;;;;;9.30;2.33;;;;;;;-143.85;100.00;70650.75;5032768;28;20112;-85
2022/10/01 10:49:51;;;;;;;5.93;2.50;;;;;;;-143.85;100.00;70650.75;5045927;28;20033;-85
2022/10/01 10:52:32;;;;;;;4.65;2.40;;;;;;;-143.85;100.00;70650.75;5021476;28;20453;-85
2022/10/01 10:55:00;;;;;;;7.00;2.45;;;;;;;-143.85;100.00;70650.75;5027875;28;20028;-86
2022/10/01 10:57:35;;;;;;;4.05;2.58;;;;;;;-143.85;100.00;70650.75;5044188;28;20059;-87
2022/10/01 11:00:16;;;;;;;7.05;2.88;;;;;;;-143.85;100.00;70650.75;5021533;28;20064;-87
2022/10/01 11:02:55;;;;;;;9.98;4.32;;;;;;;-143.85;100.00;70650.75;5016533;28;20044;-87
2022/10/01 11:05:23;;;;;;;9.88;4.07;;;;;;;-143.85;100.00;70650.75;5019038;28;20022;-87
2022/10/01 11:07:54;;;;;;;11.73;4.28;;;;;;;-143.85;100.00;70650.75;5025336;28;20091;-89
2022/10/01 11:10:38;;;;;;;7.93;3.78;;;;;;;-143.85;100.00;70650.75;5043397;28;20398;-87
2022/10/01 11:13:25;;;;;;;9.90;4.75;;;;;;;-143.85;100.00;70650.75;5020545;28;20068;-87
2022/10/01 11:16:18;;;;;;;8.65;4.15;;;;;;;-143.85;100.00;70650.75;5037634;28;20029;-85
2022/10/01 11:19:15;;;;;;;12.85;5.75;;;;;;;-143.85;100.00;70650.75;5033695;28;20028;-90
2022/10/01 11:21:59;;;;;;;7.85;3.97;;;;;;;-143.85;100.00;70650.75;5024580;28;20500;-88
2022/10/01 11:24:46;;;;;;;5.65;3.97;;;;;;;-143.85;100.00;70650.75;5029712;28;20111;-87
2022/10/01 11:27:56;;;;;;;5.63;3.60;;;;;;;-143.85;100.00;70650.75;5022286;28;20057;-86
2022/10/01 11:30:25;;;;;;;6.53;4.15;;;;;;;-143.85;100.00;70650.75;5019801;28;20037;-85